Airport ID:CYBF
Update Time (UTC):23/05/2024 02:52
Wind Speed (Knots):2
Wind Direction (Magnetic):050
Temperature (°C):7.9
Dew Point (°C):2.9
Humidity (%):71
Altimeter (inHg):29.96
Density Altitude (Feet):\\\\
Visibility (Miles):6
Clouds (Hundreds of feet):FEW037 SCT070 OVC110
Present Weather:
METAR:METAR CYBF 230300Z AUTO 06003KT 020V110 10SM FEW037 SCT070 OVC110 08/03 A2995=

The data displayed is for advisory purposes only and is not to be used for flight planning or operations.

This page is not automatically refreshed. Reload the page to see current data.